createdAt,value
2019-05-15T00:04:12.927Z,102081.20
2019-05-15T00:09:18.871Z,102078.60
2019-05-15T00:14:21.547Z,102073.84
2019-05-15T00:19:24.987Z,102076.00
2019-05-15T00:24:28.937Z,102073.27
2019-05-15T00:29:32.511Z,102075.35
2019-05-15T00:34:37.861Z,102072.38
2019-05-15T00:39:41.102Z,102066.45
2019-05-15T00:44:44.544Z,102069.87
2019-05-15T00:49:48.808Z,102064.14
2019-05-15T00:54:52.440Z,102071.34
2019-05-15T00:59:55.825Z,102062.88
2019-05-15T01:04:59.254Z,102066.52
2019-05-15T01:10:03.037Z,102065.06
2019-05-15T01:15:09.516Z,102058.38
2019-05-15T01:20:13.336Z,102063.65
2019-05-15T01:25:18.645Z,102058.71
2019-05-15T01:30:22.134Z,102058.83
2019-05-15T01:35:25.567Z,102057.89
2019-05-15T01:40:29.061Z,102060.46
2019-05-15T01:45:32.477Z,102057.73
2019-05-15T01:50:38.397Z,102058.15
2019-05-15T01:55:41.063Z,102050.76
2019-05-15T02:00:44.480Z,102049.08
2019-05-15T02:05:48.580Z,102045.49
2019-05-15T02:10:52.012Z,102038.67
2019-05-15T02:15:55.412Z,102041.13
2019-05-15T02:20:59.788Z,102039.80
2019-05-15T02:26:03.319Z,102037.42
2019-05-15T02:31:09.969Z,102041.94
2019-05-15T02:36:11.915Z,102038.48
2019-05-15T02:41:15.322Z,102041.72
2019-05-15T02:46:19.615Z,102038.77
2019-05-15T02:51:23.241Z,102040.91
2019-05-15T02:56:29.356Z,102045.16
2019-05-15T03:01:31.902Z,102039.59
2019-05-15T03:06:38.634Z,102041.73
2019-05-15T03:11:41.271Z,102031.94
2019-05-15T03:16:44.730Z,102037.97
2019-05-15T03:21:49.630Z,102043.02
2019-05-15T03:26:53.325Z,102037.13
2019-05-15T03:32:13.529Z,102036.83
2019-05-15T03:37:04.188Z,102031.82
2019-05-15T03:42:09.583Z,102029.69
2019-05-15T03:47:13.291Z,102028.70
2019-05-15T03:52:19.047Z,102025.88
2019-05-15T03:57:23.183Z,102023.48
2019-05-15T04:02:28.778Z,102024.52
2019-05-15T04:07:32.494Z,102020.79
2019-05-15T04:12:35.898Z,102030.19
2019-05-15T04:17:40.348Z,102031.38
2019-05-15T04:22:44.013Z,102032.38
2019-05-15T04:27:49.604Z,102030.64
2019-05-15T04:32:53.027Z,102031.93
2019-05-15T04:37:59.420Z,102040.09
2019-05-15T04:43:01.702Z,102032.49
2019-05-15T04:48:05.363Z,102045.01
2019-05-15T04:53:10.538Z,102042.39
2019-05-15T04:58:14.060Z,102044.22
2019-05-15T05:03:19.852Z,102052.68
2019-05-15T05:08:22.754Z,102050.06
2019-05-15T05:13:28.642Z,102045.27
2019-05-15T05:18:31.394Z,102052.55
2019-05-15T05:23:34.811Z,102049.72
2019-05-15T05:28:38.225Z,102055.11
2019-05-15T05:33:41.672Z,102063.70
2019-05-15T05:38:45.090Z,102067.31
2019-05-15T05:43:48.802Z,102070.03
2019-05-15T05:48:52.331Z,102065.27
2019-05-15T05:53:55.837Z,102062.89
2019-05-15T05:58:59.243Z,102062.92
2019-05-15T06:04:02.655Z,102066.64
2019-05-15T06:09:09.039Z,102066.48
2019-05-15T06:14:12.023Z,102058.00
2019-05-15T06:19:15.450Z,102063.06
2019-05-15T06:24:18.871Z,102059.34
2019-05-15T06:29:22.286Z,102066.95
2019-05-15T06:34:25.718Z,102054.30
2019-05-15T06:39:29.216Z,102055.89
2019-05-15T06:44:32.773Z,102051.14
2019-05-15T06:49:37.823Z,102052.07
2019-05-15T06:54:41.410Z,102052.22
2019-05-15T06:59:44.822Z,102053.55
2019-05-15T07:04:48.888Z,102052.44
2019-05-15T07:09:52.722Z,102055.71
2019-05-15T07:14:58.217Z,102060.88
2019-05-15T07:20:01.371Z,102054.80
2019-05-15T07:25:08.886Z,102057.34
2019-05-15T07:30:13.152Z,102043.22
2019-05-15T07:35:19.157Z,102048.76
2019-05-15T07:40:23.348Z,102038.38
2019-05-15T07:45:28.279Z,102037.59
2019-05-15T07:50:31.860Z,102027.33
2019-05-15T07:55:35.299Z,102031.77
2019-05-15T08:00:39.635Z,102030.93
2019-05-15T08:05:58.050Z,102026.58
2019-05-15T08:10:49.225Z,102032.30
2019-05-15T08:15:52.681Z,102030.13
2019-05-15T08:20:58.632Z,102023.96
2019-05-15T08:26:01.261Z,102019.50
2019-05-15T08:31:06.707Z,102005.11
2019-05-15T08:36:09.923Z,101998.46
2019-05-15T08:41:15.566Z,101996.83
2019-05-15T08:46:18.812Z,101999.69
2019-05-15T08:51:22.334Z,101993.44
2019-05-15T08:56:28.668Z,101982.75
2019-05-15T09:01:30.910Z,101975.68
2019-05-15T09:06:34.328Z,101962.84
2019-05-15T09:11:39.180Z,101958.94
2019-05-15T09:16:42.896Z,101960.20
2019-05-15T09:21:48.811Z,101954.31
2019-05-15T09:26:51.602Z,101958.47
2019-05-15T09:31:55.029Z,101951.34
2019-05-15T09:36:59.938Z,101950.21
2019-05-15T09:42:03.603Z,101938.70
2019-05-15T09:47:09.151Z,101928.60
2019-05-15T09:52:12.147Z,101923.83
2019-05-15T09:57:15.579Z,101925.81
2019-05-15T10:02:19.241Z,101915.02
2019-05-15T10:07:22.709Z,101903.09
2019-05-15T10:12:31.347Z,101899.47
2019-05-15T10:17:31.299Z,101890.77
2019-05-15T10:22:34.724Z,101881.27
2019-05-15T10:27:39.824Z,101870.38
2019-05-15T10:32:43.489Z,101870.38
2019-05-15T10:37:48.825Z,101870.66
2019-05-15T10:42:52.103Z,101866.68
2019-05-15T10:47:58.404Z,101855.55
2019-05-15T10:53:00.686Z,101851.42
2019-05-15T10:58:04.230Z,101842.00
2019-05-15T11:03:08.902Z,101826.78
2019-05-15T11:08:12.459Z,101826.33
2019-05-15T11:13:18.510Z,101831.48
2019-05-15T11:18:21.083Z,101812.54
2019-05-15T11:23:24.523Z,101817.81
2019-05-15T11:28:31.726Z,101808.72
2019-05-15T11:33:33.089Z,101805.20
2019-05-15T11:38:38.149Z,101800.31
2019-05-15T11:43:41.753Z,101783.09
2019-05-15T11:48:45.169Z,101790.22
2019-05-15T11:53:49.191Z,101784.45
2019-05-15T11:58:52.791Z,101785.69
2019-05-15T12:03:58.575Z,101789.25
2019-05-15T12:09:01.412Z,101777.66
2019-05-15T12:14:04.916Z,101775.53
2019-05-15T12:19:09.516Z,101769.92
2019-05-15T12:24:13.768Z,101767.67
2019-05-15T12:29:17.291Z,101765.67
2019-05-15T12:34:20.720Z,101766.39
2019-05-15T12:39:29.458Z,101756.41
2019-05-15T12:59:45.069Z,101740.78
2019-05-15T13:04:48.563Z,101722.98
2019-05-15T13:09:52.076Z,101723.54
2019-05-15T13:14:55.491Z,101719.48
2019-05-15T13:19:58.907Z,101717.14
2019-05-15T13:25:02.529Z,101720.59
2019-05-15T13:30:11.996Z,101723.50
2019-05-15T13:35:15.625Z,101720.83
2019-05-15T13:40:33.824Z,101703.61
2019-05-15T13:45:24.734Z,101703.61
2019-05-15T13:50:28.620Z,101693.23
2019-05-15T13:55:36.803Z,101684.91
2019-05-15T14:00:39.133Z,101684.55
2019-05-15T14:05:45.090Z,101673.98
2019-05-15T14:10:48.755Z,101660.78
2019-05-15T14:15:52.389Z,101647.05
2019-05-15T14:20:58.206Z,101656.31
2019-05-15T14:26:15.079Z,101660.26
2019-05-15T14:31:09.503Z,101651.95
2019-05-15T14:36:11.273Z,101636.34
2019-05-15T14:41:14.703Z,101638.28
2019-05-15T14:46:18.650Z,101622.69
2019-05-15T14:51:22.135Z,101626.65
2019-05-15T14:56:25.584Z,101617.41
2019-05-15T15:01:29.041Z,101618.66
2019-05-15T15:06:32.474Z,101621.00
2019-05-15T15:11:38.368Z,101617.80
2019-05-15T15:16:41.121Z,101611.05
2019-05-15T15:21:44.539Z,101610.88
2019-05-15T15:26:49.323Z,101599.48
2019-05-15T15:31:52.877Z,101593.47
2019-05-15T15:36:57.937Z,101589.13
2019-05-15T15:42:01.503Z,101580.10
2019-05-15T15:47:05.201Z,101587.66
2019-05-15T15:52:08.942Z,101576.48
2019-05-15T15:57:12.396Z,101572.88
2019-05-15T16:02:15.785Z,101570.36
2019-05-15T16:07:19.214Z,101569.75
2019-05-15T16:12:22.638Z,101564.58
2019-05-15T16:17:28.477Z,101555.75
2019-05-15T16:22:31.213Z,101546.03
2019-05-15T16:27:34.628Z,101541.95
2019-05-15T16:32:41.405Z,101533.88
2019-05-15T16:37:43.353Z,101539.28
2019-05-15T16:42:48.861Z,101539.58
2019-05-15T16:47:52.212Z,101526.95
2019-05-15T16:52:55.644Z,101524.00
2019-05-15T16:57:59.179Z,101519.66
2019-05-15T17:03:10.093Z,101517.16
2019-05-15T17:08:09.154Z,101530.12
2019-05-15T17:13:12.725Z,101530.07
2019-05-15T17:18:18.114Z,101533.04
2019-05-15T17:23:21.277Z,101523.94
2019-05-15T17:28:24.707Z,101530.06
2019-05-15T17:33:28.875Z,101532.37
2019-05-15T17:38:33.436Z,101520.41
2019-05-15T17:43:37.942Z,101524.22
2019-05-15T17:48:41.431Z,101529.40
2019-05-15T17:53:44.867Z,101518.59
2019-05-15T17:58:48.836Z,101523.86
2019-05-15T18:03:52.379Z,101515.78
2019-05-15T18:08:55.980Z,101515.61
2019-05-15T18:14:00.186Z,101514.06
2019-05-15T18:19:03.608Z,101524.23
2019-05-15T18:24:09.313Z,101523.16
2019-05-15T18:29:12.933Z,101520.77
2019-05-15T18:34:18.616Z,101518.14
2019-05-15T18:39:21.776Z,101520.98
2019-05-15T18:44:25.197Z,101522.66
2019-05-15T18:49:28.646Z,101529.93
2019-05-15T18:54:32.075Z,101531.56
2019-05-15T18:59:35.496Z,101532.55
2019-05-15T19:04:38.919Z,101532.79
2019-05-15T19:09:42.376Z,101536.52
2019-05-15T19:14:46.006Z,101535.34
2019-05-15T19:19:49.418Z,101534.22
2019-05-15T19:24:52.838Z,101536.49
2019-05-15T19:29:56.285Z,101533.73
2019-05-15T19:34:59.707Z,101534.25
2019-05-15T19:40:03.914Z,101543.48
2019-05-15T19:45:09.251Z,101542.63
2019-05-15T19:50:13.927Z,101538.84
2019-05-15T19:55:19.524Z,101539.74
2019-05-15T20:00:23.713Z,101535.80
2019-05-15T20:05:29.004Z,101539.74
2019-05-15T20:10:32.215Z,101536.36
2019-05-15T20:15:37.814Z,101538.56
2019-05-15T20:20:40.780Z,101546.47
2019-05-15T20:25:44.288Z,101543.45
2019-05-15T20:30:48.185Z,101540.50
2019-05-15T20:35:51.784Z,101537.78
2019-05-15T20:40:55.219Z,101540.81
2019-05-15T20:45:58.642Z,101534.81
2019-05-15T20:51:02.079Z,101535.24
2019-05-15T20:56:05.503Z,101527.02
2019-05-15T21:01:09.301Z,101526.57
2019-05-15T21:06:12.751Z,101531.32
2019-05-15T21:11:18.049Z,101526.47
2019-05-15T21:16:22.990Z,101517.69
2019-05-15T21:21:28.255Z,101517.19
2019-05-15T21:26:31.529Z,101499.72
2019-05-15T21:31:35.000Z,101493.14
2019-05-15T21:36:39.456Z,101490.55
2019-05-15T21:41:43.026Z,101487.44
2019-05-15T21:46:48.124Z,101486.95
2019-05-15T21:51:51.647Z,101486.53
2019-05-15T21:57:06.794Z,101478.64
2019-05-15T22:02:00.564Z,101476.06
2019-05-15T22:07:04.061Z,101476.94
2019-05-15T22:12:07.684Z,101479.55
2019-05-15T22:17:11.107Z,101479.95
2019-05-15T22:22:14.591Z,101481.27
2019-05-15T22:27:21.044Z,101480.00
2019-05-15T22:32:23.190Z,101472.19
2019-05-15T22:37:26.598Z,101464.73
2019-05-15T22:42:31.814Z,101452.11
2019-05-15T22:47:35.416Z,101456.96
2019-05-15T22:52:39.164Z,101447.88
2019-05-15T22:57:42.550Z,101444.77
2019-05-15T23:02:48.899Z,101451.77
2019-05-15T23:07:51.843Z,101441.73
2019-05-15T23:12:55.267Z,101445.73
2019-05-15T23:17:58.698Z,101443.18
2019-05-15T23:23:02.137Z,101442.31
2019-05-15T23:28:05.657Z,101432.81
2019-05-15T23:33:09.075Z,101428.45
2019-05-15T23:38:12.497Z,101424.09
2019-05-15T23:43:15.944Z,101417.56
2019-05-15T23:48:19.374Z,101414.06
2019-05-15T23:53:22.823Z,101418.81
2019-05-15T23:58:28.886Z,101413.60
